createdAt,value
2022-10-06T00:00:15.148Z,7.4
2022-10-06T00:02:31.800Z,7.3
2022-10-06T00:04:47.944Z,7.4
2022-10-06T00:07:03.856Z,3.9
2022-10-06T00:09:20.858Z,7.8
2022-10-06T00:11:37.718Z,7.7
2022-10-06T00:13:53.460Z,7.7
2022-10-06T00:16:10.008Z,4.4
2022-10-06T00:18:27.209Z,7.6
2022-10-06T00:20:43.883Z,7.6
2022-10-06T00:23:00.801Z,7.3
2022-10-06T00:25:17.658Z,7.1
2022-10-06T00:27:34.560Z,7.6
2022-10-06T00:29:51.444Z,7.1
2022-10-06T00:32:08.366Z,6.9
2022-10-06T00:34:25.305Z,7.4
2022-10-06T00:36:42.156Z,7.4
2022-10-06T00:38:59.147Z,7.5
2022-10-06T00:41:15.882Z,6.9
2022-10-06T00:43:32.744Z,7.1
2022-10-06T00:45:50.101Z,7.4
2022-10-06T00:48:06.482Z,6.8
2022-10-06T00:50:23.399Z,7.1
2022-10-06T00:52:39.341Z,7.4
2022-10-06T00:54:55.810Z,4.1
2022-10-06T00:57:12.908Z,7.2
2022-10-06T00:59:29.818Z,7.3
2022-10-06T01:01:47.086Z,7.5
2022-10-06T01:04:03.973Z,7.4
2022-10-06T01:06:20.810Z,7.2
2022-10-06T01:08:38.019Z,7.9
2022-10-06T01:10:54.972Z,7.4
2022-10-06T01:13:12.022Z,6.8
2022-10-06T01:15:27.888Z,7.1
2022-10-06T01:17:43.621Z,3.4
2022-10-06T01:20:00.178Z,3.3
2022-10-06T01:22:17.341Z,8
2022-10-06T01:24:34.286Z,7.5
2022-10-06T01:26:50.529Z,7.1
2022-10-06T01:29:06.955Z,3.1
2022-10-06T01:31:24.214Z,7.3
2022-10-06T01:33:41.082Z,6.7
2022-10-06T01:35:58.132Z,7
2022-10-06T01:38:15.281Z,7.3
2022-10-06T01:40:32.148Z,6.9
2022-10-06T01:42:49.393Z,7
2022-10-06T01:45:06.370Z,7.1
2022-10-06T01:47:23.457Z,7.1
2022-10-06T01:49:39.173Z,7.3
2022-10-06T01:51:55.654Z,3.6
2022-10-06T01:54:13.087Z,7.4
2022-10-06T01:56:28.544Z,3.6
2022-10-06T01:58:45.796Z,7.3
2022-10-06T02:01:02.734Z,7.2
2022-10-06T02:03:18.732Z,7.1
2022-10-06T02:05:35.296Z,3.1
2022-10-06T02:07:52.590Z,7.6
2022-10-06T02:10:09.413Z,6.6
2022-10-06T02:12:25.533Z,7.3
2022-10-06T02:14:42.077Z,2.7
2022-10-06T02:16:59.248Z,7.3
2022-10-06T02:19:16.385Z,5.8
2022-10-06T02:21:33.188Z,6.7
2022-10-06T02:23:49.353Z,6.1
2022-10-06T02:26:04.956Z,3.3
2022-10-06T02:28:21.940Z,3
2022-10-06T02:30:39.492Z,6.8
2022-10-06T02:32:56.111Z,7.1
2022-10-06T02:35:13.107Z,6.8
2022-10-06T02:37:29.917Z,6.7
2022-10-06T02:39:47.093Z,6.7
2022-10-06T02:42:04.174Z,6.5
2022-10-06T02:44:21.352Z,6.3
2022-10-06T02:46:38.383Z,6.8
2022-10-06T02:48:55.214Z,6.2
2022-10-06T02:51:12.334Z,6.6
2022-10-06T02:53:27.936Z,2.9
2022-10-06T02:55:44.856Z,7.5
2022-10-06T02:58:02.173Z,6.8
2022-10-06T03:00:18.053Z,6.9
2022-10-06T03:02:34.080Z,2.1
2022-10-06T03:04:50.562Z,3.4
2022-10-06T03:07:06.735Z,7.1
2022-10-06T03:09:23.636Z,3.1
2022-10-06T03:11:40.616Z,6.8
2022-10-06T03:13:58.538Z,6
2022-10-06T03:16:14.868Z,6.6
2022-10-06T03:18:32.356Z,6.7
2022-10-06T03:20:48.949Z,6.9
2022-10-06T03:23:08.272Z,6.7
2022-10-06T03:25:23.114Z,6.5
2022-10-06T03:27:40.245Z,6.5
2022-10-06T03:29:57.210Z,6.3
2022-10-06T03:32:14.152Z,6.4
2022-10-06T03:34:31.401Z,5.8
2022-10-06T03:36:48.283Z,6
2022-10-06T03:39:05.480Z,6.3
2022-10-06T03:41:22.481Z,6.1
2022-10-06T03:43:38.618Z,6.2
2022-10-06T03:45:54.308Z,2
2022-10-06T03:48:10.463Z,2.8
2022-10-06T03:50:27.223Z,3.3
2022-10-06T03:52:44.263Z,6.2
2022-10-06T03:55:00.506Z,6.6
2022-10-06T03:57:17.156Z,2.7
2022-10-06T03:59:34.560Z,7.1
2022-10-06T04:01:51.595Z,6.6
2022-10-06T04:04:07.707Z,6.1
2022-10-06T04:06:24.458Z,2.4
2022-10-06T04:08:41.360Z,7.6
2022-10-06T04:10:58.720Z,6.8
2022-10-06T04:13:15.632Z,6
2022-10-06T04:15:32.761Z,6.4
2022-10-06T04:17:48.749Z,6.6
2022-10-06T04:20:05.673Z,3.1
2022-10-06T04:22:22.719Z,6.8
2022-10-06T04:24:39.938Z,5.9
2022-10-06T04:26:56.378Z,6.1
2022-10-06T04:29:12.780Z,3
2022-10-06T04:31:29.840Z,6.6
2022-10-06T04:33:46.028Z,6.9
2022-10-06T04:36:02.005Z,3.6
2022-10-06T04:38:18.623Z,2.8
2022-10-06T04:40:35.803Z,6.7
2022-10-06T04:42:52.844Z,7
2022-10-06T04:45:10.130Z,6.4
2022-10-06T04:47:40.407Z,6.3
2022-10-06T04:49:56.304Z,2.3
2022-10-06T04:52:13.021Z,3.2
2022-10-06T04:54:33.656Z,6.8
2022-10-06T04:56:47.166Z,7.1
2022-10-06T04:59:04.428Z,7
2022-10-06T05:01:21.262Z,6.9
2022-10-06T05:03:37.265Z,6.3
2022-10-06T05:05:53.805Z,3.1
2022-10-06T05:08:10.903Z,7.6
2022-10-06T05:10:26.936Z,6.9
2022-10-06T05:12:42.822Z,3.4
2022-10-06T05:14:59.573Z,4
2022-10-06T05:17:15.821Z,7.9
2022-10-06T05:19:32.581Z,4.3
2022-10-06T05:21:49.714Z,6.7
2022-10-06T05:24:06.872Z,8.2
2022-10-06T05:26:23.759Z,7.9
2022-10-06T05:28:40.787Z,7.3
2022-10-06T05:30:56.677Z,7
2022-10-06T05:33:13.506Z,4.5
2022-10-06T05:35:29.705Z,8.6
2022-10-06T05:37:45.518Z,4.9
2022-10-06T05:40:02.303Z,4.7
2022-10-06T05:42:19.505Z,8
2022-10-06T05:44:36.681Z,8.6
2022-10-06T05:46:53.372Z,8.9
2022-10-06T05:49:09.442Z,9.3
2022-10-06T05:51:30.258Z,5.3
2022-10-06T05:53:42.083Z,9.1
2022-10-06T05:55:58.096Z,6.3
2022-10-06T05:58:18.369Z,6.1
2022-10-06T06:00:31.916Z,9.9
2022-10-06T06:02:48.958Z,10.7
2022-10-06T06:05:04.855Z,10.6
2022-10-06T06:07:20.674Z,6.8
2022-10-06T06:09:37.421Z,7.5
2022-10-06T06:11:54.576Z,12.6
2022-10-06T06:14:11.620Z,11.9
2022-10-06T06:16:28.495Z,12.3
2022-10-06T06:18:44.333Z,12.9
2022-10-06T06:20:59.995Z,8.9
2022-10-06T06:23:15.872Z,9.3
2022-10-06T06:25:32.636Z,9.3
2022-10-06T06:27:49.572Z,13.4
2022-10-06T06:30:06.917Z,13.4
2022-10-06T06:32:23.586Z,14
2022-10-06T06:34:39.397Z,15.6
2022-10-06T06:36:55.701Z,12.6
2022-10-06T06:39:12.684Z,15.9
2022-10-06T06:43:46.540Z,17.3
2022-10-06T06:46:03.296Z,16.4
2022-10-06T06:48:20.178Z,17.2
2022-10-06T06:50:37.024Z,16.8
2022-10-06T06:52:53.835Z,17.5
2022-10-06T06:55:10.564Z,18.3
2022-10-06T06:57:27.226Z,19
2022-10-06T06:59:43.937Z,18.1
2022-10-06T07:02:00.531Z,19.4
2022-10-06T07:04:29.215Z,19.6
2022-10-06T07:06:45.677Z,19.9
2022-10-06T07:09:02.229Z,21.3
2022-10-06T07:11:18.754Z,20.6
2022-10-06T07:13:35.263Z,21.3
2022-10-06T07:15:51.717Z,22.9
2022-10-06T07:18:08.193Z,21.7
2022-10-06T07:20:24.616Z,22.1
2022-10-06T07:22:41.121Z,23.1
2022-10-06T07:24:57.478Z,22.8
2022-10-06T07:27:13.869Z,22.7
2022-10-06T07:29:30.219Z,22.3
2022-10-06T07:31:46.594Z,22.4
2022-10-06T07:34:02.097Z,22.9
2022-10-06T07:36:16.949Z,20.9
2022-10-06T07:38:31.870Z,21.3
2022-10-06T07:41:07.609Z,22.4
2022-10-06T07:43:20.856Z,22.2
2022-10-06T07:45:37.805Z,23.1
2022-10-06T07:47:53.749Z,26.8
2022-10-06T07:50:10.111Z,27.1
2022-10-06T07:52:26.192Z,30.7
2022-10-06T07:54:42.357Z,30.4
2022-10-06T07:56:58.513Z,30.6
2022-10-06T07:59:14.594Z,31.2
2022-10-06T08:01:29.992Z,31
2022-10-06T08:03:45.617Z,26.5
2022-10-06T08:06:02.726Z,31.5
2022-10-06T08:08:18.097Z,32.2
2022-10-06T08:10:34.145Z,34.5
2022-10-06T08:12:50.750Z,37.1
2022-10-06T08:15:07.288Z,38.1
2022-10-06T08:17:21.575Z,40.4
2022-10-06T08:20:01.885Z,34.8
2022-10-06T08:22:17.748Z,34.9
2022-10-06T08:24:48.083Z,42.6
2022-10-06T08:27:03.406Z,36.6
2022-10-06T08:29:18.451Z,35.3
2022-10-06T08:31:33.465Z,35.3
2022-10-06T08:33:48.470Z,35.4
2022-10-06T08:36:03.551Z,36.3
2022-10-06T08:38:29.190Z,36.4
2022-10-06T08:40:44.374Z,37.2
2022-10-06T08:43:00.169Z,37.3
2022-10-06T08:45:15.612Z,42.3
2022-10-06T08:47:31.561Z,36.6
2022-10-06T08:49:46.890Z,43.8
2022-10-06T08:52:02.564Z,38.3
2022-10-06T08:54:17.889Z,41.4
2022-10-06T08:56:33.768Z,36.8
2022-10-06T08:58:48.841Z,44.6
2022-10-06T09:01:03.805Z,38.4
2022-10-06T09:03:19.638Z,37
2022-10-06T09:05:35.146Z,41.8
2022-10-06T09:07:50.025Z,36.6
2022-10-06T09:10:05.258Z,37.7
2022-10-06T09:12:20.497Z,38.8
2022-10-06T09:14:35.753Z,38.9
2022-10-06T09:16:50.882Z,40.9
2022-10-06T09:19:21.843Z,40
2022-10-06T09:21:36.963Z,42.1
2022-10-06T09:23:52.261Z,42.4
2022-10-06T09:26:07.735Z,42.9
2022-10-06T09:28:23.115Z,42
2022-10-06T09:30:39.317Z,39.3
2022-10-06T09:32:54.833Z,43.4
2022-10-06T09:35:09.977Z,36.6
2022-10-06T09:37:25.671Z,37.9
2022-10-06T09:39:41.036Z,40.8
2022-10-06T09:41:56.575Z,41.3
2022-10-06T09:44:12.414Z,38.8
2022-10-06T09:46:28.057Z,38.9
2022-10-06T09:48:43.854Z,39.1
2022-10-06T09:50:59.568Z,38.9
2022-10-06T09:53:15.480Z,41.1
2022-10-06T09:55:31.212Z,41.3
2022-10-06T09:57:47.061Z,41.8
2022-10-06T10:00:02.664Z,41.8
2022-10-06T10:02:18.353Z,42.6
2022-10-06T10:04:51.421Z,41.7
2022-10-06T10:07:04.011Z,42.1
2022-10-06T10:09:21.427Z,42.2
2022-10-06T10:11:35.875Z,41.3
2022-10-06T10:13:51.186Z,42.4
2022-10-06T10:16:06.798Z,41.3
2022-10-06T10:18:22.573Z,40.9
2022-10-06T10:20:38.356Z,41.2
2022-10-06T10:22:53.895Z,39.8
2022-10-06T10:25:09.630Z,38.9
2022-10-06T10:27:25.449Z,38.7
2022-10-06T10:29:41.122Z,33.6
2022-10-06T10:31:57.065Z,31.5
2022-10-06T10:34:23.794Z,30.5
2022-10-06T10:36:30.586Z,30
2022-10-06T10:38:46.376Z,29.6
2022-10-06T10:41:02.022Z,29
2022-10-06T10:43:17.935Z,27.9
2022-10-06T10:45:33.486Z,27.1
2022-10-06T10:47:49.213Z,26.9
2022-10-06T10:50:05.023Z,26.6
2022-10-06T10:52:20.675Z,26.1
2022-10-06T10:54:36.429Z,25.8
2022-10-06T10:56:52.338Z,25.3
2022-10-06T10:59:07.933Z,24
2022-10-06T11:01:23.757Z,23.2
2022-10-06T11:03:39.540Z,23.6
2022-10-06T11:05:55.218Z,23.9
2022-10-06T11:08:11.037Z,24.1
2022-10-06T11:10:26.673Z,23.8
2022-10-06T11:12:42.579Z,24
2022-10-06T11:14:58.407Z,23.6
2022-10-06T11:17:14.075Z,22.4
2022-10-06T11:19:29.636Z,21.1
2022-10-06T11:21:45.369Z,21.8
2022-10-06T11:24:01.131Z,21.9
2022-10-06T11:26:16.923Z,21.6
2022-10-06T11:28:32.664Z,20.6
2022-10-06T11:30:48.316Z,20.6
2022-10-06T11:33:04.241Z,20.9
2022-10-06T11:35:19.932Z,21.4
2022-10-06T11:37:35.815Z,21
2022-10-06T11:42:07.180Z,20.8
2022-10-06T11:44:22.978Z,20.4
2022-10-06T11:46:41.420Z,20
2022-10-06T11:48:54.406Z,19.6
2022-10-06T11:51:10.122Z,19
2022-10-06T11:53:25.926Z,19.3
2022-10-06T11:55:41.655Z,19.1
2022-10-06T11:57:57.530Z,18.9
2022-10-06T12:00:30.907Z,18.6
2022-10-06T12:02:47.062Z,18.6
2022-10-06T12:05:02.784Z,18.9
2022-10-06T12:07:43.125Z,19.3
2022-10-06T12:09:59.122Z,18.8
2022-10-06T12:12:14.359Z,18.9
2022-10-06T12:19:44.677Z,18.9
2022-10-06T12:22:06.224Z,18.6
2022-10-06T12:24:16.329Z,18.4
2022-10-06T12:26:32.025Z,18.6
2022-10-06T12:28:47.781Z,18.8
2022-10-06T12:31:03.657Z,18.9
2022-10-06T12:33:19.281Z,19.1
2022-10-06T12:35:35.083Z,18.3
2022-10-06T12:37:54.165Z,17.8
2022-10-06T12:40:06.652Z,17.5
2022-10-06T12:42:22.437Z,17.6
2022-10-06T12:44:38.326Z,17.6
2022-10-06T12:46:54.051Z,17.8
2022-10-06T12:49:09.874Z,17.4
2022-10-06T12:51:25.570Z,17.1
2022-10-06T12:53:41.484Z,16.9
2022-10-06T12:55:57.199Z,17.3
2022-10-06T12:58:13.212Z,17.5
2022-10-06T13:00:28.840Z,17.9
2022-10-06T13:02:44.564Z,17.8
2022-10-06T13:05:00.542Z,17.2
2022-10-06T13:07:16.145Z,17.1
2022-10-06T13:09:31.870Z,17.3
2022-10-06T13:11:47.717Z,17.7
2022-10-06T13:14:03.475Z,17.8
2022-10-06T13:16:19.294Z,17.6
2022-10-06T13:18:34.912Z,17.2
2022-10-06T13:20:50.942Z,16.9
2022-10-06T13:23:08.759Z,17.4
2022-10-06T13:25:22.374Z,16.9
2022-10-06T13:27:38.098Z,16.6
2022-10-06T13:29:54.075Z,16.2
2022-10-06T13:32:09.609Z,16.2
2022-10-06T13:34:25.726Z,16.2
2022-10-06T13:36:42.325Z,16
2022-10-06T13:38:57.245Z,16.1
2022-10-06T13:41:15.810Z,15.9
2022-10-06T13:43:35.094Z,15.5
2022-10-06T13:45:47.425Z,15.6
2022-10-06T13:48:03.159Z,15.5
2022-10-06T13:50:20.097Z,15.8
2022-10-06T13:52:34.825Z,15.7
2022-10-06T13:54:50.522Z,15.6
2022-10-06T13:57:06.453Z,15.8
2022-10-06T13:59:22.326Z,15.6
2022-10-06T14:01:38.207Z,15.5
2022-10-06T14:03:53.830Z,15.5
2022-10-06T14:06:09.645Z,15.6
2022-10-06T14:08:25.460Z,15.4
2022-10-06T14:10:41.242Z,15.1
2022-10-06T14:12:57.061Z,14.8
2022-10-06T14:15:12.908Z,15.3
2022-10-06T14:17:28.589Z,15.1
2022-10-06T14:19:45.002Z,15
2022-10-06T14:22:00.519Z,20.3
2022-10-06T14:24:16.010Z,14.8
2022-10-06T14:26:31.604Z,15
2022-10-06T14:28:47.533Z,15
2022-10-06T14:31:03.122Z,15.4
2022-10-06T14:33:18.849Z,14.9
2022-10-06T14:35:34.541Z,14.8
2022-10-06T14:37:50.335Z,14.8
2022-10-06T14:40:10.192Z,14.9
2022-10-06T14:42:22.127Z,14.8
2022-10-06T14:44:37.925Z,14.8
2022-10-06T14:46:54.042Z,14.7
2022-10-06T14:49:10.139Z,14.5
2022-10-06T14:51:26.093Z,19.9
2022-10-06T14:53:42.173Z,14.4
2022-10-06T14:55:58.006Z,19.5
2022-10-06T14:58:13.898Z,14.3
2022-10-06T15:00:29.720Z,19.3
2022-10-06T15:02:45.044Z,14.2
2022-10-06T15:05:01.245Z,13.9
2022-10-06T15:07:16.845Z,19.3
2022-10-06T15:09:32.894Z,13.8
2022-10-06T15:11:48.700Z,18.9
2022-10-06T15:14:05.065Z,13.4
2022-10-06T15:16:20.665Z,18.3
2022-10-06T15:18:40.662Z,13.6
2022-10-06T15:20:53.560Z,17.8
2022-10-06T15:23:10.183Z,17.4
2022-10-06T15:27:43.275Z,17.4
2022-10-06T15:29:59.718Z,16.9
2022-10-06T15:32:16.370Z,17.4
2022-10-06T15:34:32.816Z,17.4
2022-10-06T15:36:49.403Z,16.9
2022-10-06T15:41:22.512Z,16.9
2022-10-06T15:43:38.838Z,16.9
2022-10-06T15:45:55.469Z,16.4
2022-10-06T15:48:11.814Z,16.9
2022-10-06T15:50:28.657Z,16.4
2022-10-06T15:55:01.382Z,16.5
2022-10-06T15:57:20.833Z,16.3
2022-10-06T15:59:33.390Z,11.6
2022-10-06T16:01:49.132Z,14.9
2022-10-06T16:04:05.353Z,11.6
2022-10-06T16:06:22.414Z,14.9
2022-10-06T16:08:39.129Z,14.6
2022-10-06T16:10:56.155Z,14.7
2022-10-06T16:13:12.623Z,14.5
2022-10-06T16:15:28.180Z,14.9
2022-10-06T16:17:43.598Z,10.9
2022-10-06T16:19:59.224Z,11.1
2022-10-06T16:22:15.836Z,11
2022-10-06T16:24:31.680Z,14.3
2022-10-06T16:26:48.280Z,11.1
2022-10-06T16:29:04.132Z,14.8
2022-10-06T16:31:19.791Z,10.5
2022-10-06T16:33:36.342Z,10.6
2022-10-06T16:35:52.345Z,13.8
2022-10-06T16:38:08.887Z,10.8
2022-10-06T16:40:25.790Z,14.4
2022-10-06T16:42:42.851Z,14.2
2022-10-06T16:45:01.556Z,14
2022-10-06T16:47:16.737Z,13.4
2022-10-06T16:49:32.411Z,14.2
2022-10-06T16:51:48.835Z,9.9
2022-10-06T16:54:05.703Z,13.4
2022-10-06T16:56:22.789Z,13.2
2022-10-06T16:58:39.482Z,14.1
2022-10-06T17:00:56.396Z,13.1
2022-10-06T17:03:12.115Z,14.2
2022-10-06T17:05:28.431Z,9.6
2022-10-06T17:07:45.505Z,13.1
2022-10-06T17:10:20.817Z,13.6
2022-10-06T17:12:35.082Z,13.9
2022-10-06T17:14:51.933Z,13.7
2022-10-06T17:17:09.113Z,14.3
2022-10-06T17:19:25.437Z,13.3
2022-10-06T17:22:01.084Z,13.8
2022-10-06T17:24:18.046Z,13.8
2022-10-06T17:26:34.516Z,14.2
2022-10-06T17:28:51.470Z,13.5
2022-10-06T17:31:08.257Z,13.6
2022-10-06T17:33:25.121Z,13.4
2022-10-06T17:35:42.185Z,14.1
2022-10-06T17:37:58.960Z,13.1
2022-10-06T17:40:14.561Z,12.5
2022-10-06T17:42:31.125Z,8.9
2022-10-06T17:44:46.890Z,13.6
2022-10-06T17:47:03.574Z,8.8
2022-10-06T17:49:20.321Z,13.2
2022-10-06T17:51:37.281Z,12.9
2022-10-06T17:53:54.286Z,12.6
2022-10-06T17:56:11.023Z,12.4
2022-10-06T17:58:28.060Z,13.3
2022-10-06T18:00:44.998Z,13.6
2022-10-06T18:03:01.907Z,13.6
2022-10-06T18:05:18.580Z,12.9
2022-10-06T18:07:35.719Z,12.8
2022-10-06T18:09:52.539Z,12.3
2022-10-06T18:12:09.427Z,11.9
2022-10-06T18:14:26.296Z,11.9
2022-10-06T18:16:43.108Z,12.6
2022-10-06T18:19:00.127Z,12.3
2022-10-06T18:21:17.309Z,12.4
2022-10-06T18:23:34.059Z,11.8
2022-10-06T18:25:50.837Z,12.4
2022-10-06T18:28:07.927Z,12.3
2022-10-06T18:30:29.013Z,12.6
2022-10-06T18:37:02.887Z,12.6
2022-10-06T18:39:19.599Z,12.6
2022-10-06T18:41:36.746Z,12.4
2022-10-06T18:43:52.103Z,11.9
2022-10-06T18:46:08.439Z,7.8
2022-10-06T18:48:25.395Z,12.7
2022-10-06T18:50:42.328Z,12.2
2022-10-06T18:52:58.328Z,11.9
2022-10-06T18:55:14.668Z,7.9
2022-10-06T18:57:31.608Z,11.6
2022-10-06T18:59:48.715Z,11.6
2022-10-06T19:02:05.821Z,11.9
2022-10-06T19:04:22.699Z,11.8
2022-10-06T19:06:39.507Z,11.4
2022-10-06T19:08:56.621Z,12.3
2022-10-06T19:11:13.402Z,11.3
2022-10-06T19:13:30.420Z,11.9
2022-10-06T19:15:47.260Z,11.9
2022-10-06T19:18:04.203Z,11.8
2022-10-06T19:20:22.452Z,11.3
2022-10-06T19:22:39.446Z,11.9
2022-10-06T19:24:56.188Z,11.3
2022-10-06T19:27:13.199Z,11.1
2022-10-06T19:29:29.906Z,11.3
2022-10-06T19:31:46.755Z,11.8
2022-10-06T19:34:03.563Z,11.9
2022-10-06T19:36:20.371Z,11.9
2022-10-06T19:38:37.199Z,11.5
2022-10-06T19:40:54.045Z,11.9
2022-10-06T19:43:10.862Z,12
2022-10-06T19:45:27.762Z,10.9
2022-10-06T19:47:44.911Z,11.8
2022-10-06T19:50:04.899Z,11.3
2022-10-06T19:52:18.462Z,11.9
2022-10-06T19:54:35.547Z,11
2022-10-06T19:56:52.359Z,11.6
2022-10-06T19:59:09.399Z,11.2
2022-10-06T20:01:26.298Z,11.2
2022-10-06T20:03:43.214Z,11.2
2022-10-06T20:06:00.221Z,11.4
2022-10-06T20:08:17.043Z,10.8
2022-10-06T20:10:34.194Z,11.3
2022-10-06T20:12:50.059Z,10.8
2022-10-06T20:15:05.683Z,7.7
2022-10-06T20:17:22.059Z,7.1
2022-10-06T20:19:39.281Z,10.5
2022-10-06T20:21:55.178Z,10.9
2022-10-06T20:24:12.430Z,6.9
2022-10-06T20:26:29.200Z,11.4
2022-10-06T20:28:45.741Z,11.1
2022-10-06T20:31:02.849Z,10.7
2022-10-06T20:33:19.700Z,10.8
2022-10-06T20:35:36.833Z,10.3
2022-10-06T20:37:53.724Z,10.2
2022-10-06T20:40:11.133Z,10.8
2022-10-06T20:42:27.638Z,10.4
2022-10-06T20:44:44.843Z,10.8
2022-10-06T20:47:01.605Z,10.3
2022-10-06T20:49:18.422Z,10.3
2022-10-06T20:51:35.571Z,9.7
2022-10-06T20:53:52.491Z,10.3
2022-10-06T20:56:09.574Z,9.6
2022-10-06T20:58:25.537Z,10
2022-10-06T21:00:40.985Z,6.8
2022-10-06T21:02:57.677Z,6.7
2022-10-06T21:05:14.696Z,10.8
2022-10-06T21:07:31.821Z,10.2
2022-10-06T21:09:52.122Z,10.4
2022-10-06T21:12:05.601Z,10.3
2022-10-06T21:14:22.880Z,9.6
2022-10-06T21:16:39.664Z,10.2
2022-10-06T21:18:56.617Z,10.4
2022-10-06T21:21:13.657Z,10.5
2022-10-06T21:23:30.583Z,9.9
2022-10-06T21:25:46.621Z,10.6
2022-10-06T21:28:02.940Z,6.6
2022-10-06T21:30:20.117Z,11.2
2022-10-06T21:32:35.884Z,10.4
2022-10-06T21:34:52.797Z,6.5
2022-10-06T21:37:09.538Z,10.3
2022-10-06T21:39:26.492Z,10.9
2022-10-06T21:41:44.093Z,10.4
2022-10-06T21:44:00.793Z,10.1
2022-10-06T21:46:30.006Z,9.9
2022-10-06T21:48:46.891Z,5.9
2022-10-06T21:51:03.881Z,9.9
2022-10-06T21:53:20.807Z,10.8
2022-10-06T21:55:37.740Z,9.7
2022-10-06T21:57:54.594Z,10.1
2022-10-06T22:00:11.537Z,9.5
2022-10-06T22:02:28.470Z,9.7
2022-10-06T22:04:45.270Z,10.1
2022-10-06T22:07:02.209Z,9.8
2022-10-06T22:09:19.348Z,9.8
2022-10-06T22:11:35.932Z,9.8
2022-10-06T22:13:52.806Z,10.1
2022-10-06T22:16:09.828Z,10
2022-10-06T22:18:26.566Z,9.9
2022-10-06T22:20:43.404Z,9.6
2022-10-06T22:23:04.718Z,9.4
2022-10-06T22:25:17.123Z,9.4
2022-10-06T22:27:34.026Z,9.5
2022-10-06T22:29:50.936Z,9.3
2022-10-06T22:32:07.889Z,9.5
2022-10-06T22:34:24.674Z,9.3
2022-10-06T22:36:41.629Z,9.1
2022-10-06T22:38:58.475Z,9.3
2022-10-06T22:41:15.391Z,9.4
2022-10-06T22:43:32.246Z,9
2022-10-06T22:45:48.254Z,9.4
2022-10-06T22:48:04.454Z,5.7
2022-10-06T22:50:21.553Z,9.9
2022-10-06T22:52:37.313Z,9.6
2022-10-06T22:54:54.048Z,5.7
2022-10-06T22:57:10.796Z,9.1
2022-10-06T22:59:27.693Z,9.4
2022-10-06T23:01:44.696Z,9.3
2022-10-06T23:04:01.570Z,9.8
2022-10-06T23:06:18.677Z,9.9
2022-10-06T23:08:35.382Z,9.4
2022-10-06T23:10:49.831Z,5.8
2022-10-06T23:13:06.480Z,6.2
2022-10-06T23:15:23.457Z,9.6
2022-10-06T23:17:39.437Z,10.2
2022-10-06T23:19:55.978Z,5.6
2022-10-06T23:22:12.926Z,9.2
2022-10-06T23:24:29.902Z,9.9
2022-10-06T23:26:46.838Z,9.5
2022-10-06T23:29:03.754Z,9.7
2022-10-06T23:31:21.225Z,9.4
2022-10-06T23:33:37.658Z,9.1
2022-10-06T23:35:54.595Z,9.2
2022-10-06T23:38:11.336Z,9.1
2022-10-06T23:40:28.479Z,9.1
2022-10-06T23:42:45.148Z,8.6
2022-10-06T23:45:02.137Z,9.4
2022-10-06T23:47:17.949Z,9.7
2022-10-06T23:49:33.568Z,4.9
2022-10-06T23:51:50.150Z,5.7
2022-10-06T23:54:07.225Z,9.8
2022-10-06T23:56:24.207Z,9.2
2022-10-06T23:58:41.178Z,9.5
